Aérodrome :
LOGIN :

S'inscrire | Disclaimer

   EN    FR    IT 

 










Légende :    VFR   VFR Marginal   IFR   IFR Intensif   IFR Très Intensif
Visi : 
Plafond : 
>= 8 km
>= 3000ft
5 à 8 km
1000 à 3000 ft
1500m à 5 km
500 à 1000 ft
800 à 1500m
200 à 500 ft
< 800m
< 200 ft
Symboles :   Orages  Brouillard  Fortes neiges  Fortes précipitations  Vent > 20 kt
SIGMETs :   Divers  Orages  Givrage  Turbulence  Onde Orograph.  Cendres Volcan.






- Altitude de l'aérodrome : 119 ft
- Code IATA : WAT


EIWF - Waterford

DERNIER METAR :
  • 261730Z 28010KT 240V320 9999 VCSH FEW018CB SCT037 06/01 Q1007

METARs EXPIRÉS :
  • 261700Z 27004KT 230V310 9999 SCT030 06/02 Q1007
  • 261630Z 28006KT 240V310 9999 FEW031 06/01 Q1007
  • 261600Z 28006KT 250V320 9999 FEW030 06/01 Q1007
  • 261530Z 29010KT 260V320 9999 FEW030 06/02 Q1008
  • 261500Z 29010KT 260V320 9999 FEW030 06/02 Q1008

TAF TAF EIWF
Valide du 26 à 18h jusqu'au 27 à 03h UTC


261700Z 2618/2703 26006KT 9999 SCT020 BKN040
TEMPO 2621/2703 3000 -RASN BKN008 OVC018
ATIS : +353 51 877 000



MET'MAP, la Météo Aéronautique d'un coup d'oeil ! - Copyright ORBIFLY Décembre 2007 - Disclaimer

ORBIFLY MET'MAP TEAM :

Programmation & Développement : Alexandra Zaïnal
Sur une idée originale de : Baudouin d'Aumeries
Assistance à la programmation : Marc-Olivier Méhu
Soutien technique & logistique : Manuel Goepfert

Contact : metmap@orbifly.com




SOURCES & CREDITS :

   NOAA